F/V Oceanis — FHLH — position and weather

sailwx.info

Track history (hours):
 
Tides and Currents Weather Stations Pressure Air Temp Water Temp Dewpoint Dewpoint Depression Visibility Wind Speed Wind Dir Waves Ship Positions

F/V Oceanis

Last reported at 2017-Jan-22 11:30 UTC. Time now 2017-Jan-23 02:35 UTC.
Position N 45°53' W 001°59'.

Type: Other ship. MMSI: 228385000.

Date/timePositionNaut miles runAvg speedWind from/ knotsBaromVisibWave heightAir tempDewpointWater temp
2017-Jan-22 11:30N 45°53' W 001°59'1 1.5
2017-Jan-22 10:32N 45°53' W 001°57'3 3.3
2017-Jan-22 09:33N 45°52' W 002°01'2 1.5
2017-Jan-22 08:33N 45°50' W 002°00'2 1.6
2017-Jan-22 07:33N 45°52' W 002°00'2 0.8
2017-Jan-22 05:09N 45°50' W 001°59'2 2.9
2017-Jan-22 04:33N 45°48' W 001°59'4 1.5
2017-Jan-22 01:33N 45°53' W 001°59'0 0.0
2017-Jan-22 00:27N 45°53' W 001°59'0 0.0
2017-Jan-21 23:27N 45°53' W 001°59'2 0.2
2017-Jan-21 12:19N 45°53' W 001°56'64 4.9
2017-Jan-20 23:18N 44°53' W 001°30'6 7.8
2017-Jan-20 22:33N 44°47' W 001°26'8 7.8
2017-Jan-20 21:33N 44°40' W 001°22'7 7.2
2017-Jan-20 20:33N 44°34' W 001°16'6 6.4
2017-Jan-20 19:33N 44°40' W 001°12'2 2.4
2017-Jan-20 18:33N 44°39' W 001°09'0 0.0
2017-Jan-20 17:32N 44°39' W 001°09'0 0.0
2017-Jan-20 16:33N 44°39' W 001°09'0 0.0
2017-Jan-20 15:33N 44°39' W 001°09'0 0.0
2017-Jan-20 14:33N 44°39' W 001°09'0 0.0
2017-Jan-20 13:33N 44°39' W 001°09'0 0.0
2017-Jan-20 12:33N 44°39' W 001°09'0 0.0
2017-Jan-20 11:33N 44°39' W 001°09'0 0.0
2017-Jan-20 10:33N 44°39' W 001°09'0 0.0
2017-Jan-20 09:33N 44°39' W 001°09'0 0.0
2017-Jan-20 08:33N 44°39' W 001°09'0 0.0
2017-Jan-20 07:33N 44°39' W 001°09'0 0.0
2017-Jan-20 06:33N 44°39' W 001°09'0 0.0
2017-Jan-20 05:33N 44°39' W 001°09'0 0.0
2017-Jan-20 04:34N 44°39' W 001°09'0 0.0
2017-Jan-20 03:33N 44°39' W 001°09'0 0.0
2017-Jan-20 02:33N 44°39' W 001°09'0 0.0
2017-Jan-20 01:33N 44°39' W 001°09'0 0.0
2017-Jan-20 00:33N 44°39' W 001°09'0 0.0
2017-Jan-19 23:34N 44°39' W 001°09'0 0.0
2017-Jan-19 22:33N 44°39' W 001°09'0 0.0
2017-Jan-19 21:33N 44°39' W 001°09'0 0.0
2017-Jan-19 20:33N 44°39' W 001°09'0 0.0
2017-Jan-19 19:33N 44°39' W 001°09'0 0.0
2017-Jan-19 18:33N 44°39' W 001°09'0 0.0
2017-Jan-19 17:33N 44°39' W 001°09'0 0.0
2017-Jan-19 16:33N 44°39' W 001°09'0 0.0
2017-Jan-19 15:33N 44°39' W 001°09'0 0.0
2017-Jan-19 14:33N 44°39' W 001°09'0 0.0
2017-Jan-19 13:34N 44°39' W 001°09'0 0.0
2017-Jan-19 12:33N 44°39' W 001°09'0 0.0
2017-Jan-19 11:33N 44°39' W 001°09'0 0.0
2017-Jan-17 13:05N 44°39' W 001°09'0 0.0
2017-Jan-17 11:22N 44°39' W 001°09'0 0.0
2017-Jan-17 10:33N 44°39' W 001°09'1 0.8
2017-Jan-17 09:33N 44°40' W 001°09'6 6.0
2017-Jan-17 08:33N 44°35' W 001°15'6 5.9
2017-Jan-17 07:33N 44°40' W 001°21'8 7.8
2017-Jan-17 06:33N 44°47' W 001°23'4 3.7
2017-Jan-17 05:33N 44°51' W 001°24'2 2.4
2017-Jan-17 04:32N 44°48' W 001°24'2 2.1
2017-Jan-17 03:33N 44°50' W 001°24'2 1.7
2017-Jan-17 02:18N 44°48' W 001°23'2 2.3
2017-Jan-17 01:33N 44°50' W 001°23'2 1.7
2017-Jan-17 00:31N 44°50' W 001°25'0 0.0
2017-Jan-16 23:31N 44°50' W 001°25'0 0.0
2017-Jan-16 22:32N 44°50' W 001°25'0 0.0
2017-Jan-16 21:33N 44°50' W 001°25'0 0.0
2017-Jan-16 19:22N 44°50' W 001°25'0 0.0
2017-Jan-16 15:32N 44°50' W 001°25'2 1.8
2017-Jan-16 14:30N 44°48' W 001°24'1 1.6
2017-Jan-16 13:33N 44°49' W 001°23'11 0.5
2017-Jan-15 12:32N 44°47' W 001°38'0 0.4
2017-Jan-15 11:17N 44°47' W 001°39'1 0.8
2017-Jan-15 09:33N 44°46' W 001°37'1 0.4
2017-Jan-15 07:21N 44°46' W 001°37'1 0.5
2017-Jan-15 05:32N 44°46' W 001°38'1 0.5
2017-Jan-15 03:28N 44°47' W 001°38'2 0.2
2017-Jan-14 15:10N 44°49' W 001°39'3 3.7
2017-Jan-14 14:19N 44°46' W 001°37'1 0.7
2017-Jan-14 13:29N 44°46' W 001°37'3 2.7
2017-Jan-14 12:33N 44°48' W 001°37'2 1.4
2017-Jan-14 11:14N 44°46' W 001°37'2 2.6
2017-Jan-14 10:33N 44°48' W 001°37'2 1.2
2017-Jan-14 09:05N 44°46' W 001°38'1 1.5
2017-Jan-14 08:32N 44°47' W 001°38'1 0.5
2017-Jan-14 07:32N 44°47' W 001°38'1 0.6
2017-Jan-14 06:33N 44°48' W 001°38'1 0.8
2017-Jan-14 05:27N 44°48' W 001°38'2 1.2
2017-Jan-14 03:33N 44°46' W 001°38'1 0.1
2017-Jan-13 14:18N 44°47' W 001°37'1 1.5
2017-Jan-13 13:33N 44°48' W 001°37'2 1.0
2017-Jan-13 11:11N 44°46' W 001°38'1 1.8
2017-Jan-13 10:32N 44°47' W 001°37'2 1.6
2017-Jan-13 09:29N 44°48' W 001°37'3 2.1
2017-Jan-13 08:10N 44°46' W 001°37'1 2.2
2017-Jan-13 07:33N 44°47' W 001°37'2 2.0
2017-Jan-13 06:33N 44°49' W 001°37'1 0.1
2017-Jan-13 00:11N 44°50' W 001°37'0 0.0
2017-Jan-12 22:33N 44°50' W 001°37'0 0.0
2017-Jan-12 21:28N 44°50' W 001°37'0 0.0
2017-Jan-12 20:28N 44°50' W 001°37'0 0.0
2017-Jan-12 19:24N 44°50' W 001°37'4 0.8
2017-Jan-12 14:22N 44°46' W 001°38'1 0.5
2017-Jan-12 13:17N 44°46' W 001°37'0 0.4
2017-Jan-12 12:25N 44°46' W 001°37'  
Track history (hours):
 
Tides and Currents Weather Stations Pressure Air Temp Water Temp Dewpoint Dewpoint Depression Visibility Wind Speed Wind Dir Waves Ship Positions

F/V Oceanis

Last reported at 2017-Jan-22 11:30 UTC. Time now 2017-Jan-23 02:35 UTC.
Position N 45°53' W 001°59'.

Type: Other ship. MMSI: 228385000.

Date/timePositionNaut miles runAvg speedWind from/ knotsBaromVisibWave heightAir tempDewpointWater temp
2017-Jan-22 11:30N 45°53' W 001°59'1 1.5
2017-Jan-22 10:32N 45°53' W 001°57'3 3.3
2017-Jan-22 09:33N 45°52' W 002°01'2 1.5
2017-Jan-22 08:33N 45°50' W 002°00'2 1.6
2017-Jan-22 07:33N 45°52' W 002°00'2 0.8
2017-Jan-22 05:09N 45°50' W 001°59'2 2.9
2017-Jan-22 04:33N 45°48' W 001°59'4 1.5
2017-Jan-22 01:33N 45°53' W 001°59'0 0.0
2017-Jan-22 00:27N 45°53' W 001°59'0 0.0
2017-Jan-21 23:27N 45°53' W 001°59'2 0.2
2017-Jan-21 12:19N 45°53' W 001°56'64 4.9
2017-Jan-20 23:18N 44°53' W 001°30'6 7.8
2017-Jan-20 22:33N 44°47' W 001°26'8 7.8
2017-Jan-20 21:33N 44°40' W 001°22'7 7.2
2017-Jan-20 20:33N 44°34' W 001°16'6 6.4
2017-Jan-20 19:33N 44°40' W 001°12'2 2.4
2017-Jan-20 18:33N 44°39' W 001°09'0 0.0
2017-Jan-20 17:32N 44°39' W 001°09'0 0.0
2017-Jan-20 16:33N 44°39' W 001°09'0 0.0
2017-Jan-20 15:33N 44°39' W 001°09'0 0.0
2017-Jan-20 14:33N 44°39' W 001°09'0 0.0
2017-Jan-20 13:33N 44°39' W 001°09'0 0.0
2017-Jan-20 12:33N 44°39' W 001°09'0 0.0
2017-Jan-20 11:33N 44°39' W 001°09'0 0.0
2017-Jan-20 10:33N 44°39' W 001°09'0 0.0
2017-Jan-20 09:33N 44°39' W 001°09'0 0.0
2017-Jan-20 08:33N 44°39' W 001°09'0 0.0
2017-Jan-20 07:33N 44°39' W 001°09'0 0.0
2017-Jan-20 06:33N 44°39' W 001°09'0 0.0
2017-Jan-20 05:33N 44°39' W 001°09'0 0.0
2017-Jan-20 04:34N 44°39' W 001°09'0 0.0
2017-Jan-20 03:33N 44°39' W 001°09'0 0.0
2017-Jan-20 02:33N 44°39' W 001°09'0 0.0
2017-Jan-20 01:33N 44°39' W 001°09'0 0.0
2017-Jan-20 00:33N 44°39' W 001°09'0 0.0
2017-Jan-19 23:34N 44°39' W 001°09'0 0.0
2017-Jan-19 22:33N 44°39' W 001°09'0 0.0
2017-Jan-19 21:33N 44°39' W 001°09'0 0.0
2017-Jan-19 20:33N 44°39' W 001°09'0 0.0
2017-Jan-19 19:33N 44°39' W 001°09'0 0.0
2017-Jan-19 18:33N 44°39' W 001°09'0 0.0
2017-Jan-19 17:33N 44°39' W 001°09'0 0.0
2017-Jan-19 16:33N 44°39' W 001°09'0 0.0
2017-Jan-19 15:33N 44°39' W 001°09'0 0.0
2017-Jan-19 14:33N 44°39' W 001°09'0 0.0
2017-Jan-19 13:34N 44°39' W 001°09'0 0.0
2017-Jan-19 12:33N 44°39' W 001°09'0 0.0
2017-Jan-19 11:33N 44°39' W 001°09'0 0.0
2017-Jan-17 13:05N 44°39' W 001°09'0 0.0
2017-Jan-17 11:22N 44°39' W 001°09'0 0.0
2017-Jan-17 10:33N 44°39' W 001°09'1 0.8
2017-Jan-17 09:33N 44°40' W 001°09'6 6.0
2017-Jan-17 08:33N 44°35' W 001°15'6 5.9
2017-Jan-17 07:33N 44°40' W 001°21'8 7.8
2017-Jan-17 06:33N 44°47' W 001°23'4 3.7
2017-Jan-17 05:33N 44°51' W 001°24'2 2.4
2017-Jan-17 04:32N 44°48' W 001°24'2 2.1
2017-Jan-17 03:33N 44°50' W 001°24'2 1.7
2017-Jan-17 02:18N 44°48' W 001°23'2 2.3
2017-Jan-17 01:33N 44°50' W 001°23'2 1.7
2017-Jan-17 00:31N 44°50' W 001°25'0 0.0
2017-Jan-16 23:31N 44°50' W 001°25'0 0.0
2017-Jan-16 22:32N 44°50' W 001°25'0 0.0
2017-Jan-16 21:33N 44°50' W 001°25'0 0.0
2017-Jan-16 19:22N 44°50' W 001°25'0 0.0
2017-Jan-16 15:32N 44°50' W 001°25'2 1.8
2017-Jan-16 14:30N 44°48' W 001°24'1 1.6
2017-Jan-16 13:33N 44°49' W 001°23'11 0.5
2017-Jan-15 12:32N 44°47' W 001°38'0 0.4
2017-Jan-15 11:17N 44°47' W 001°39'1 0.8
2017-Jan-15 09:33N 44°46' W 001°37'1 0.4
2017-Jan-15 07:21N 44°46' W 001°37'1 0.5
2017-Jan-15 05:32N 44°46' W 001°38'1 0.5
2017-Jan-15 03:28N 44°47' W 001°38'2 0.2
2017-Jan-14 15:10N 44°49' W 001°39'3 3.7
2017-Jan-14 14:19N 44°46' W 001°37'1 0.7
2017-Jan-14 13:29N 44°46' W 001°37'3 2.7
2017-Jan-14 12:33N 44°48' W 001°37'2 1.4
2017-Jan-14 11:14N 44°46' W 001°37'2 2.6
2017-Jan-14 10:33N 44°48' W 001°37'2 1.2
2017-Jan-14 09:05N 44°46' W 001°38'1 1.5
2017-Jan-14 08:32N 44°47' W 001°38'1 0.5
2017-Jan-14 07:32N 44°47' W 001°38'1 0.6
2017-Jan-14 06:33N 44°48' W 001°38'1 0.8
2017-Jan-14 05:27N 44°48' W 001°38'2 1.2
2017-Jan-14 03:33N 44°46' W 001°38'1 0.1
2017-Jan-13 14:18N 44°47' W 001°37'1 1.5
2017-Jan-13 13:33N 44°48' W 001°37'2 1.0
2017-Jan-13 11:11N 44°46' W 001°38'1 1.8
2017-Jan-13 10:32N 44°47' W 001°37'2 1.6
2017-Jan-13 09:29N 44°48' W 001°37'3 2.1
2017-Jan-13 08:10N 44°46' W 001°37'1 2.2
2017-Jan-13 07:33N 44°47' W 001°37'2 2.0
2017-Jan-13 06:33N 44°49' W 001°37'1 0.1
2017-Jan-13 00:11N 44°50' W 001°37'0 0.0
2017-Jan-12 22:33N 44°50' W 001°37'0 0.0
2017-Jan-12 21:28N 44°50' W 001°37'0 0.0
2017-Jan-12 20:28N 44°50' W 001°37'0 0.0
2017-Jan-12 19:24N 44°50' W 001°37'4 0.8
2017-Jan-12 14:22N 44°46' W 001°38'1 0.5
2017-Jan-12 13:17N 44°46' W 001°37'0 0.4
2017-Jan-12 12:25N 44°46' W 001°37'  

Dump ship's entire track history